Ferdinand R Hassler — WTEK — position and weather

sailwx.info

Track history (hours):
 
Tides and Currents Weather Stations Pressure Air Temp Water Temp Dewpoint Dewpoint Depression Visibility Wind Speed Wind Dir Waves Ship Positions

Ferdinand R Hassler

Last reported at 2014-Oct-23 06:08 UTC. Time now 2014-Oct-25 15:24 UTC.
Position N 37°00' W 076°16'.

Length 37 m; draft 3.8 m.

Type: . MMSI: 369970091.

Date/timePositionNaut miles runAvg speedWind from/ knotsBaromVisibWave heightAir tempDewpointWater temp
2014-Oct-23 06:08N 37°00' W 076°16'30 0.8
2014-Oct-21 15:05N 37°11' W 075°41'1 0.4
2014-Oct-21 13:11N 37°12' W 075°41'3 1.6
2014-Oct-21 11:32N 37°14' W 075°39'  
2014-Oct-18 08:21N 37°10' W 075°43'0 0.0
2014-Oct-18 04:33N 37°10' W 075°44'1 0.4
2014-Oct-18 03:04N 37°10' W 075°43'1 0.4
2014-Oct-18 01:22N 37°10' W 075°42'1 0.2
2014-Oct-17 15:33N 37°09' W 075°44'1 0.0
2014-Oct-16 16:22N 37°08' W 075°44'12 4.0
2014-Oct-16 13:24N 36°57' W 075°48'1011.5
2014-Oct-16 12:33N 36°57' W 076°01'4 4.0
2014-Oct-16 11:30N 36°57' W 076°06'0 0.0
2014-Oct-16 10:24N 36°57' W 076°06'0 0.0
2014-Oct-16 09:21N 36°57' W 076°06'0 0.0
2014-Oct-16 07:18N 36°57' W 076°06'0 0.0
2014-Oct-16 05:27N 36°57' W 076°06'0 0.0
2014-Oct-16 04:27N 36°57' W 076°06'0 0.0
2014-Oct-16 03:24N 36°57' W 076°06'0 0.0
2014-Oct-16 01:12N 36°57' W 076°06'0 0.0
2014-Oct-15 22:27N 36°57' W 076°06'0 0.0
2014-Oct-15 18:33N 36°57' W 076°06'0 0.0
2014-Oct-15 17:21N 36°57' W 076°06'0 0.0
2014-Oct-15 16:33N 36°57' W 076°06'0 0.0
2014-Oct-15 14:27N 36°57' W 076°06'0 0.0
2014-Oct-15 12:27N 36°57' W 076°06'0 0.0
2014-Oct-15 11:06N 36°57' W 076°06'0 0.0
2014-Oct-15 10:18N 36°57' W 076°06'0 0.0
2014-Oct-15 08:03N 36°57' W 076°06'1 2.1
2014-Oct-15 07:32N 36°57' W 076°05'1 1.5
2014-Oct-15 06:33N 36°57' W 076°03'0 0.3
2014-Oct-15 05:33N 36°57' W 076°03'1 0.9
2014-Oct-15 04:33N 36°56' W 076°03'2 1.6
2014-Oct-15 03:33N 36°56' W 076°05'1 1.0
2014-Oct-15 02:33N 36°57' W 076°06'9 9.3
2014-Oct-15 01:33N 36°57' W 075°54'15 6.5
2014-Oct-14 23:15N 37°08' W 075°43'1 1.7
2014-Oct-14 22:33N 37°08' W 075°44'2 0.7
2014-Oct-14 19:06N 37°08' W 075°41'1 0.1
2014-Oct-14 12:29N 37°08' W 075°40'2 1.6
2014-Oct-14 11:22N 37°08' W 075°43'1 1.0
2014-Oct-14 10:32N 37°08' W 075°44'1 1.3
2014-Oct-14 09:29N 37°08' W 075°42'2 1.9
2014-Oct-14 08:31N 37°08' W 075°44'0 0.4
2014-Oct-14 07:28N 37°08' W 075°45'0 0.1
2014-Oct-14 06:32N 37°08' W 075°45'1 0.8
2014-Oct-14 05:33N 37°08' W 075°44'0 0.2
2014-Oct-14 04:04N 37°08' W 075°44'1 0.2
2014-Oct-14 01:32N 37°07' W 075°45'3 2.4
2014-Oct-14 00:29N 37°07' W 075°42'28 7.0
2014-Oct-13 20:34N 37°00' W 076°15'9 7.5
2014-Oct-13 19:18N 36°51' W 076°18'0 0.2
2014-Oct-13 17:22N 36°51' W 076°18'0 0.0
2014-Oct-13 11:25N 36°51' W 076°18'0 0.0
2014-Oct-13 09:19N 36°51' W 076°18'0 0.0
2014-Oct-13 08:25N 36°51' W 076°18'0 0.0
2014-Oct-13 06:16N 36°51' W 076°18'  
Track history (hours):
 
Tides and Currents Weather Stations Pressure Air Temp Water Temp Dewpoint Dewpoint Depression Visibility Wind Speed Wind Dir Waves Ship Positions

Ferdinand R Hassler

Last reported at 2014-Oct-23 06:08 UTC. Time now 2014-Oct-25 15:24 UTC.
Position N 37°00' W 076°16'.

Length 37 m; draft 3.8 m.

Type: . MMSI: 369970091.

Date/timePositionNaut miles runAvg speedWind from/ knotsBaromVisibWave heightAir tempDewpointWater temp
2014-Oct-23 06:08N 37°00' W 076°16'30 0.8
2014-Oct-21 15:05N 37°11' W 075°41'1 0.4
2014-Oct-21 13:11N 37°12' W 075°41'3 1.6
2014-Oct-21 11:32N 37°14' W 075°39'  
2014-Oct-18 08:21N 37°10' W 075°43'0 0.0
2014-Oct-18 04:33N 37°10' W 075°44'1 0.4
2014-Oct-18 03:04N 37°10' W 075°43'1 0.4
2014-Oct-18 01:22N 37°10' W 075°42'1 0.2
2014-Oct-17 15:33N 37°09' W 075°44'1 0.0
2014-Oct-16 16:22N 37°08' W 075°44'12 4.0
2014-Oct-16 13:24N 36°57' W 075°48'1011.5
2014-Oct-16 12:33N 36°57' W 076°01'4 4.0
2014-Oct-16 11:30N 36°57' W 076°06'0 0.0
2014-Oct-16 10:24N 36°57' W 076°06'0 0.0
2014-Oct-16 09:21N 36°57' W 076°06'0 0.0
2014-Oct-16 07:18N 36°57' W 076°06'0 0.0
2014-Oct-16 05:27N 36°57' W 076°06'0 0.0
2014-Oct-16 04:27N 36°57' W 076°06'0 0.0
2014-Oct-16 03:24N 36°57' W 076°06'0 0.0
2014-Oct-16 01:12N 36°57' W 076°06'0 0.0
2014-Oct-15 22:27N 36°57' W 076°06'0 0.0
2014-Oct-15 18:33N 36°57' W 076°06'0 0.0
2014-Oct-15 17:21N 36°57' W 076°06'0 0.0
2014-Oct-15 16:33N 36°57' W 076°06'0 0.0
2014-Oct-15 14:27N 36°57' W 076°06'0 0.0
2014-Oct-15 12:27N 36°57' W 076°06'0 0.0
2014-Oct-15 11:06N 36°57' W 076°06'0 0.0
2014-Oct-15 10:18N 36°57' W 076°06'0 0.0
2014-Oct-15 08:03N 36°57' W 076°06'1 2.1
2014-Oct-15 07:32N 36°57' W 076°05'1 1.5
2014-Oct-15 06:33N 36°57' W 076°03'0 0.3
2014-Oct-15 05:33N 36°57' W 076°03'1 0.9
2014-Oct-15 04:33N 36°56' W 076°03'2 1.6
2014-Oct-15 03:33N 36°56' W 076°05'1 1.0
2014-Oct-15 02:33N 36°57' W 076°06'9 9.3
2014-Oct-15 01:33N 36°57' W 075°54'15 6.5
2014-Oct-14 23:15N 37°08' W 075°43'1 1.7
2014-Oct-14 22:33N 37°08' W 075°44'2 0.7
2014-Oct-14 19:06N 37°08' W 075°41'1 0.1
2014-Oct-14 12:29N 37°08' W 075°40'2 1.6
2014-Oct-14 11:22N 37°08' W 075°43'1 1.0
2014-Oct-14 10:32N 37°08' W 075°44'1 1.3
2014-Oct-14 09:29N 37°08' W 075°42'2 1.9
2014-Oct-14 08:31N 37°08' W 075°44'0 0.4
2014-Oct-14 07:28N 37°08' W 075°45'0 0.1
2014-Oct-14 06:32N 37°08' W 075°45'1 0.8
2014-Oct-14 05:33N 37°08' W 075°44'0 0.2
2014-Oct-14 04:04N 37°08' W 075°44'1 0.2
2014-Oct-14 01:32N 37°07' W 075°45'3 2.4
2014-Oct-14 00:29N 37°07' W 075°42'28 7.0
2014-Oct-13 20:34N 37°00' W 076°15'9 7.5
2014-Oct-13 19:18N 36°51' W 076°18'0 0.2
2014-Oct-13 17:22N 36°51' W 076°18'0 0.0
2014-Oct-13 11:25N 36°51' W 076°18'0 0.0
2014-Oct-13 09:19N 36°51' W 076°18'0 0.0
2014-Oct-13 08:25N 36°51' W 076°18'0 0.0
2014-Oct-13 06:16N 36°51' W 076°18'  

Dump ship's entire track history